Time;durP1;ratioP1;P1;durP2;ratioP2;P2;SDS_P1;SDS_P2;PMS_P1;PMS_P2;Temp;Humidity;BMP_temperature;BMP_pressure;BME280_temperature;BME280_humidity;BME280_pressure;Samples;Min_cycle;Max_cycle;Signal;HPM_P1;HPM_P2
2023/02/08 00:01:07;;;;;;;10.03;7.57;;;;;;;-0.05;47.73;97406.78;6069369;23;20212;-82
2023/02/08 00:03:35;;;;;;;11.07;7.73;;;;;;;-0.25;48.10;97396.69;6068796;23;20488;-82
2023/02/08 00:06:02;;;;;;;12.10;7.47;;;;;;;-0.20;48.58;97394.78;6070860;23;20181;-82
2023/02/08 00:08:28;;;;;;;11.60;7.50;;;;;;;-0.27;48.40;97396.75;6069355;23;20208;-82
2023/02/08 00:10:55;;;;;;;10.07;7.63;;;;;;;-0.54;49.06;97397.91;6070062;23;20180;-82
2023/02/08 00:13:21;;;;;;;12.50;8.50;;;;;;;-0.64;49.08;97396.66;6069466;23;20220;-82
2023/02/08 00:15:47;;;;;;;10.50;7.70;;;;;;;-0.52;48.91;97393.59;6070807;23;20188;-82
2023/02/08 00:18:14;;;;;;;13.17;8.20;;;;;;;-0.63;49.32;97393.25;6070365;23;20585;-82
2023/02/08 00:20:43;;;;;;;12.00;8.03;;;;;;;-0.60;49.08;97393.94;6039483;23;20215;-82
2023/02/08 00:23:10;;;;;;;12.37;7.93;;;;;;;-0.57;49.54;97401.38;6066842;23;20941;-82
2023/02/08 00:25:36;;;;;;;12.07;7.97;;;;;;;-0.44;49.48;97399.19;6039482;23;20208;-82
2023/02/08 00:28:04;;;;;;;12.13;7.87;;;;;;;-0.51;49.19;97397.78;6062008;23;20220;-82
2023/02/08 00:30:30;;;;;;;11.90;8.43;;;;;;;-0.68;49.69;97393.41;6068985;23;20248;-82
2023/02/08 00:32:57;;;;;;;11.50;8.13;;;;;;;-0.83;49.81;97386.47;6069371;23;20212;-82
2023/02/08 00:35:23;;;;;;;12.90;8.53;;;;;;;-0.86;49.83;97389.13;6069081;23;20275;-82
2023/02/08 00:37:51;;;;;;;11.40;8.23;;;;;;;-0.93;49.98;97377.59;6068053;23;20247;-83
2023/02/08 00:40:17;;;;;;;11.00;8.20;;;;;;;-0.98;50.04;97382.03;6053867;23;20212;-83
2023/02/08 00:42:44;;;;;;;12.53;7.93;;;;;;;-0.91;50.21;97379.19;6068145;23;20205;-83
2023/02/08 00:45:10;;;;;;;10.97;7.90;;;;;;;-1.02;50.61;97376.28;6069105;23;20208;-82
2023/02/08 00:47:37;;;;;;;12.57;8.10;;;;;;;-0.96;50.45;97380.28;6068080;23;20209;-83
2023/02/08 00:50:04;;;;;;;12.33;8.67;;;;;;;-0.97;50.37;97379.44;6053897;23;20204;-82
2023/02/08 00:52:31;;;;;;;11.67;7.70;;;;;;;-0.97;50.28;97379.44;6068916;23;20216;-83
2023/02/08 00:54:59;;;;;;;11.37;7.97;;;;;;;-0.90;50.18;97374.94;6069717;23;20204;-82
2023/02/08 00:57:25;;;;;;;11.50;7.90;;;;;;;-0.90;50.51;97373.25;6069320;23;20212;-83
2023/02/08 00:59:52;;;;;;;11.77;8.07;;;;;;;-0.94;50.50;97378.47;6069483;23;20209;-83
2023/02/08 01:02:18;;;;;;;10.20;8.00;;;;;;;-0.87;49.97;97375.66;6068376;23;20204;-83
2023/02/08 01:04:44;;;;;;;13.07;8.73;;;;;;;-0.77;49.90;97379.44;6053895;23;20220;-82
2023/02/08 01:07:11;;;;;;;11.80;8.13;;;;;;;-0.78;49.66;97390.47;6068064;23;20216;-83
2023/02/08 01:09:38;;;;;;;11.37;8.03;;;;;;;-1.06;50.10;97378.09;6068310;23;20577;-83
2023/02/08 01:12:05;;;;;;;11.43;8.07;;;;;;;-1.17;50.80;97374.38;6067799;23;20597;-83
2023/02/08 01:14:32;;;;;;;14.53;8.87;;;;;;;-1.41;50.97;97381.19;6069410;23;20716;-83
2023/02/08 01:16:58;;;;;;;12.10;8.40;;;;;;;-1.48;51.22;97370.50;6068928;23;20728;-83
2023/02/08 01:19:25;;;;;;;14.10;9.00;;;;;;;-1.23;51.02;97379.66;6069282;23;20188;-82
2023/02/08 01:21:51;;;;;;;13.20;8.47;;;;;;;-1.23;50.59;97382.19;6068218;23;20208;-82
2023/02/08 01:24:18;;;;;;;13.73;8.43;;;;;;;-1.14;50.42;97379.28;6068402;23;20201;-82
2023/02/08 01:26:44;;;;;;;11.30;7.50;;;;;;;-1.10;50.39;97368.16;6068200;23;20208;-83
2023/02/08 01:29:12;;;;;;;11.87;8.30;;;;;;;-1.28;50.74;97376.47;6068998;23;20177;-83
2023/02/08 01:31:40;;;;;;;12.13;8.47;;;;;;;-1.20;50.53;97364.38;6067249;23;20377;-82
2023/02/08 01:34:08;;;;;;;12.37;8.20;;;;;;;-1.27;50.56;97375.59;6069383;23;20197;-82
2023/02/08 01:36:42;;;;;;;13.47;8.73;;;;;;;-1.35;50.71;97365.81;6069405;23;20201;-83
2023/02/08 01:39:11;;;;;;;13.13;8.97;;;;;;;-1.35;50.67;97364.97;6053675;23;20209;-83
2023/02/08 01:41:39;;;;;;;15.87;8.50;;;;;;;-1.35;50.76;97370.84;6067691;23;20205;-83
2023/02/08 01:44:08;;;;;;;13.97;9.13;;;;;;;-1.18;50.61;97367.66;6068920;23;20205;-82
2023/02/08 01:46:40;;;;;;;11.80;8.67;;;;;;;-1.01;50.33;97364.47;6068877;23;20205;-83
2023/02/08 01:49:12;;;;;;;14.03;8.93;;;;;;;-0.86;50.64;97369.72;6069501;23;20165;-82
2023/02/08 01:51:41;;;;;;;12.30;8.37;;;;;;;-0.76;49.96;97370.13;6069023;23;20272;-83
2023/02/08 01:54:11;;;;;;;14.20;9.17;;;;;;;-0.67;49.95;97362.19;6023033;23;20208;-82
2023/02/08 01:56:41;;;;;;;14.43;8.97;;;;;;;-0.60;49.95;97355.19;6067466;23;20204;-82
2023/02/08 01:59:12;;;;;;;12.87;8.47;;;;;;;-0.53;49.81;97364.13;6054499;23;20239;-82
2023/02/08 02:01:42;;;;;;;13.90;9.43;;;;;;;-0.51;49.96;97355.59;6070770;23;20208;-82
2023/02/08 02:04:09;;;;;;;13.57;8.50;;;;;;;-0.43;49.95;97355.28;6070757;23;20201;-82
2023/02/08 02:06:39;;;;;;;13.47;8.87;;;;;;;-0.42;49.38;97364.50;6071115;23;20346;-82
2023/02/08 02:09:13;;;;;;;14.20;8.93;;;;;;;-0.42;49.55;97360.28;6057054;23;20208;-82
2023/02/08 02:11:39;;;;;;;15.40;9.33;;;;;;;-0.40;49.68;97360.22;6071762;23;20307;-82
2023/02/08 02:14:06;;;;;;;14.10;9.00;;;;;;;-0.60;50.10;97360.22;6012556;23;20212;-83
2023/02/08 02:16:32;;;;;;;13.00;9.50;;;;;;;-0.72;50.29;97361.56;6068908;23;20211;-83
2023/02/08 02:19:00;;;;;;;13.10;9.10;;;;;;;-0.85;50.71;97347.78;6071725;23;20180;-82
2023/02/08 02:21:44;;;;;;;14.33;9.30;;;;;;;-0.98;51.12;97352.53;6070669;23;20177;-82
2023/02/08 02:24:29;;;;;;;14.33;9.23;;;;;;;-1.03;51.06;97349.34;6071549;23;20213;-83
2023/02/08 02:27:26;;;;;;;14.73;8.77;;;;;;;-1.09;51.42;97354.66;6071483;23;20219;-82
2023/02/08 02:30:38;;;;;;;13.37;9.37;;;;;;;-1.13;51.05;97350.59;6070539;23;20200;-82
2023/02/08 02:33:20;;;;;;;12.70;8.70;;;;;;;-1.03;51.27;97351.06;5950707;24;20294;-82
2023/02/08 02:35:56;;;;;;;14.17;8.73;;;;;;;-0.93;51.56;97342.19;6064744;23;20181;-82
2023/02/08 02:38:31;;;;;;;15.90;9.23;;;;;;;-0.85;51.39;97351.13;6069757;23;20216;-82
2023/02/08 02:41:07;;;;;;;12.60;8.93;;;;;;;-0.81;51.01;97344.25;6070130;23;20190;-82
2023/02/08 02:43:45;;;;;;;14.77;9.70;;;;;;;-0.77;51.09;97350.81;6069470;23;20264;-82
2023/02/08 02:46:24;;;;;;;13.57;9.37;;;;;;;-0.77;50.76;97349.09;6069349;23;20669;-82
2023/02/08 02:49:00;;;;;;;12.00;8.83;;;;;;;-0.83;50.95;97356.13;6068497;23;20188;-82
2023/02/08 02:51:32;;;;;;;11.83;8.63;;;;;;;-0.91;50.85;97355.59;6053759;23;20208;-82
2023/02/08 02:54:04;;;;;;;13.93;8.80;;;;;;;-0.98;51.28;97354.22;6070335;23;20197;-82
2023/02/08 02:56:36;;;;;;;12.60;8.60;;;;;;;-0.94;51.19;97350.66;6070259;23;20534;-82
2023/02/08 02:59:06;;;;;;;14.33;9.20;;;;;;;-0.89;51.00;97357.19;6070784;23;20162;-82
2023/02/08 03:01:33;;;;;;;12.83;9.00;;;;;;;-0.93;51.43;97348.06;6070801;23;20212;-82
2023/02/08 03:04:11;;;;;;;13.83;9.17;;;;;;;-0.88;51.28;97356.31;6069482;23;20205;-82
2023/02/08 03:06:54;;;;;;;12.50;8.83;;;;;;;-0.83;51.14;97353.59;6069261;23;20215;-82
2023/02/08 03:09:42;;;;;;;12.00;8.27;;;;;;;-0.96;51.38;97355.00;6070702;23;20165;-82
2023/02/08 03:12:22;;;;;;;12.80;9.20;;;;;;;-1.04;51.65;97357.81;6069314;23;20240;-83
2023/02/08 03:14:58;;;;;;;16.13;9.63;;;;;;;-1.06;51.40;97360.41;6070581;23;20280;-82
2023/02/08 03:17:34;;;;;;;12.80;8.97;;;;;;;-1.04;51.68;97355.28;6070080;23;20234;-82
2023/02/08 03:20:08;;;;;;;14.00;9.27;;;;;;;-1.22;51.60;97359.38;6070405;23;20168;-82
2023/02/08 03:22:45;;;;;;;15.03;9.67;;;;;;;-1.40;52.08;97357.56;6069357;23;20212;-82
2023/02/08 03:25:17;;;;;;;15.83;9.63;;;;;;;-1.49;52.45;97353.69;6070506;23;20215;-82
2023/02/08 03:27:53;;;;;;;14.93;9.47;;;;;;;-1.41;52.89;97354.22;6069905;23;20211;-82
2023/02/08 03:30:27;;;;;;;14.33;9.53;;;;;;;-1.65;53.28;97351.81;6068711;23;20188;-83
2023/02/08 03:32:59;;;;;;;14.00;9.67;;;;;;;-1.54;53.12;97345.47;6069758;23;20212;-83
2023/02/08 03:35:31;;;;;;;19.27;9.77;;;;;;;-1.69;53.32;97346.06;6070692;23;20596;-82
2023/02/08 03:38:01;;;;;;;14.53;9.23;;;;;;;-1.83;53.96;97340.72;6069950;23;20231;-82
2023/02/08 03:40:32;;;;;;;14.50;9.33;;;;;;;-1.85;54.07;97345.00;6070186;23;20196;-82
2023/02/08 03:43:03;;;;;;;13.50;9.70;;;;;;;-1.86;54.06;97339.13;6068446;23;20209;-82
2023/02/08 03:45:33;;;;;;;17.10;9.53;;;;;;;-2.01;54.28;97336.34;6069851;23;20204;-82
2023/02/08 03:48:05;;;;;;;12.33;8.80;;;;;;;-1.85;53.99;97338.25;6069344;23;20651;-82
2023/02/08 03:50:37;;;;;;;13.40;9.33;;;;;;;-1.65;53.49;97346.75;6069730;23;20169;-82
2023/02/08 03:53:05;;;;;;;13.37;9.60;;;;;;;-1.43;53.29;97345.06;6069524;23;20267;-82
2023/02/08 03:55:35;;;;;;;11.73;8.53;;;;;;;-1.28;53.25;97336.88;6069256;23;20201;-82
2023/02/08 03:58:08;;;;;;;15.30;9.23;;;;;;;-1.31;53.13;97331.94;6069577;23;20212;-82
2023/02/08 04:00:38;;;;;;;13.20;9.07;;;;;;;-1.47;53.05;97343.53;6024873;23;20270;-82
2023/02/08 04:03:11;;;;;;;12.13;8.93;;;;;;;-1.52;53.52;97336.13;6065845;23;20209;-82
2023/02/08 04:05:40;;;;;;;14.87;9.53;;;;;;;-1.59;53.68;97338.97;6070337;23;20165;-82
2023/02/08 04:08:06;;;;;;;16.03;9.73;;;;;;;-1.57;53.49;97335.50;6068679;23;20593;-82
2023/02/08 04:10:33;;;;;;;12.97;9.50;;;;;;;-1.73;54.01;97327.66;6054365;23;20213;-82
2023/02/08 04:12:59;;;;;;;13.70;9.97;;;;;;;-1.75;53.82;97331.97;6068827;23;20213;-82
2023/02/08 04:15:26;;;;;;;14.50;9.10;;;;;;;-1.61;54.24;97333.16;6038847;23;20296;-82
2023/02/08 04:17:53;;;;;;;14.43;9.17;;;;;;;-1.73;54.13;97331.91;6064903;23;20209;-82
2023/02/08 04:20:20;;;;;;;14.37;9.67;;;;;;;-1.58;53.87;97336.38;6070020;23;20180;-81
2023/02/08 04:22:47;;;;;;;14.70;9.40;;;;;;;-1.55;53.86;97325.34;6069376;23;20713;-82
2023/02/08 04:25:14;;;;;;;13.23;9.30;;;;;;;-1.65;54.20;97327.38;6069324;23;20735;-81
2023/02/08 04:27:40;;;;;;;17.00;9.40;;;;;;;-1.77;54.25;97322.81;6069605;23;20226;-82
2023/02/08 04:30:07;;;;;;;13.23;9.60;;;;;;;-2.08;55.38;97318.06;6068383;23;20189;-82
2023/02/08 04:32:34;;;;;;;14.80;9.47;;;;;;;-2.04;55.27;97323.84;6068330;23;20209;-82
2023/02/08 04:35:00;;;;;;;17.13;10.03;;;;;;;-2.23;55.47;97316.94;6070100;23;20197;-82
2023/02/08 04:37:27;;;;;;;16.93;10.30;;;;;;;-2.07;55.39;97314.69;6069482;23;20216;-81
2023/02/08 04:39:54;;;;;;;13.80;9.63;;;;;;;-1.98;54.97;97316.88;6070723;23;20188;-82
2023/02/08 04:42:21;;;;;;;13.97;9.70;;;;;;;-2.09;55.43;97317.25;6069517;23;20211;-82
2023/02/08 04:44:47;;;;;;;15.83;9.83;;;;;;;-2.20;55.76;97319.34;6039430;23;20205;-82
2023/02/08 04:47:14;;;;;;;13.70;9.40;;;;;;;-2.32;55.95;97324.03;6064132;23;20216;-82
2023/02/08 04:49:40;;;;;;;14.13;9.83;;;;;;;-2.20;55.75;97316.84;6068893;23;20188;-82
2023/02/08 04:52:07;;;;;;;14.80;10.10;;;;;;;-2.09;55.88;97314.72;6067811;23;20574;-81
2023/02/08 04:54:33;;;;;;;14.67;9.77;;;;;;;-2.31;56.44;97310.56;6067856;23;20197;-81
2023/02/08 04:57:01;;;;;;;14.27;10.07;;;;;;;-2.30;56.29;97317.22;6068825;23;20215;-82
2023/02/08 04:59:28;;;;;;;17.43;10.37;;;;;;;-2.42;56.67;97312.63;6069111;23;20184;-81
2023/02/08 05:01:54;;;;;;;14.37;9.10;;;;;;;-2.42;56.64;97307.56;6067513;23;20216;-82
2023/02/08 05:04:20;;;;;;;17.23;10.47;;;;;;;-2.34;56.47;97316.53;6069439;23;20208;-82
2023/02/08 05:06:49;;;;;;;15.23;10.17;;;;;;;-2.31;56.23;97318.13;6067915;23;20212;-82
2023/02/08 05:09:16;;;;;;;15.50;9.80;;;;;;;-2.34;56.26;97298.88;6069101;23;20177;-82
2023/02/08 05:11:42;;;;;;;17.53;10.70;;;;;;;-2.13;56.40;97300.59;6068679;23;20219;-81
2023/02/08 05:14:10;;;;;;;13.67;9.60;;;;;;;-2.00;55.56;97303.47;6070024;23;20197;-81
2023/02/08 05:16:37;;;;;;;16.80;9.90;;;;;;;-1.95;55.79;97300.78;6069714;23;20208;-81
2023/02/08 05:19:03;;;;;;;16.10;10.00;;;;;;;-1.92;55.72;97309.03;6070885;23;20250;-81
2023/02/08 05:21:29;;;;;;;15.83;10.57;;;;;;;-1.89;55.76;97303.88;6069408;23;20184;-81
2023/02/08 05:23:56;;;;;;;15.90;9.97;;;;;;;-1.93;55.60;97296.50;6068821;23;20266;-81
2023/02/08 05:26:22;;;;;;;14.40;10.10;;;;;;;-1.94;55.86;97303.25;6069362;23;20188;-81
2023/02/08 05:28:49;;;;;;;14.40;9.93;;;;;;;-2.03;55.98;97298.53;6069655;23;20181;-82
2023/02/08 05:31:19;;;;;;;18.27;10.73;;;;;;;-2.09;56.02;97297.06;6066775;23;20195;-81
2023/02/08 05:33:46;;;;;;;16.13;10.80;;;;;;;-2.10;56.34;97297.94;6068492;23;20536;-81
2023/02/08 05:36:14;;;;;;;16.37;10.43;;;;;;;-2.02;56.04;97305.25;6068288;23;20211;-81
2023/02/08 05:38:40;;;;;;;15.90;10.47;;;;;;;-2.03;56.20;97302.78;6069629;23;20177;-81
2023/02/08 05:41:07;;;;;;;16.50;10.13;;;;;;;-1.96;55.91;97305.03;6069504;23;20181;-82
2023/02/08 05:43:33;;;;;;;16.10;10.67;;;;;;;-1.90;55.75;97309.00;6069158;23;20718;-82
2023/02/08 05:45:59;;;;;;;17.63;10.73;;;;;;;-2.08;55.95;97300.41;6070082;23;20184;-81
2023/02/08 05:48:28;;;;;;;17.57;10.57;;;;;;;-2.00;56.08;97302.66;6069837;23;20208;-82
2023/02/08 05:50:54;;;;;;;14.17;9.73;;;;;;;-2.08;56.22;97296.19;6067372;23;20177;-81
2023/02/08 05:53:20;;;;;;;16.73;11.33;;;;;;;-2.23;56.52;97301.81;6068816;23;20215;-82
2023/02/08 05:55:48;;;;;;;17.73;10.93;;;;;;;-2.21;56.92;97301.75;6068412;23;20525;-82
2023/02/08 05:58:15;;;;;;;15.97;10.70;;;;;;;-2.23;56.65;97306.03;6069220;23;20212;-84
2023/02/08 06:00:41;;;;;;;15.43;10.63;;;;;;;-2.54;57.88;97316.41;6068917;23;20649;-84
2023/02/08 06:03:08;;;;;;;14.73;10.17;;;;;;;-2.59;57.94;97315.72;6068707;23;20205;-84
2023/02/08 06:05:37;;;;;;;15.30;10.53;;;;;;;-2.68;58.50;97311.00;6074726;23;20205;-82
2023/02/08 06:08:04;;;;;;;15.07;10.93;;;;;;;-2.67;58.59;97310.13;6075397;23;20219;-82
2023/02/08 06:10:30;;;;;;;17.37;11.70;;;;;;;-2.67;58.66;97310.94;6075399;23;20188;-81
2023/02/08 06:12:57;;;;;;;16.53;10.97;;;;;;;-2.67;58.66;97307.59;6076075;23;20204;-81
2023/02/08 06:15:23;;;;;;;17.13;10.97;;;;;;;-2.67;58.55;97300.88;6075540;23;20203;-82
2023/02/08 06:17:50;;;;;;;19.07;11.80;;;;;;;-2.83;58.76;97309.84;6074776;23;20208;-81
2023/02/08 06:20:17;;;;;;;16.20;11.30;;;;;;;-2.87;59.35;97304.06;6076290;23;20209;-81
2023/02/08 06:22:45;;;;;;;16.50;11.20;;;;;;;-2.76;58.79;97310.47;6074356;23;20560;-81
2023/02/08 06:25:11;;;;;;;15.00;10.87;;;;;;;-2.69;58.92;97299.31;6077300;23;20268;-82
2023/02/08 06:27:39;;;;;;;15.93;11.27;;;;;;;-2.63;58.59;97296.53;6075435;23;20219;-81
2023/02/08 06:30:07;;;;;;;16.57;11.13;;;;;;;-2.45;58.33;97304.28;6074100;23;20709;-81
2023/02/08 06:32:33;;;;;;;21.83;11.10;;;;;;;-2.45;58.01;97298.41;6071980;23;20205;-81
2023/02/08 06:35:00;;;;;;;19.80;11.77;;;;;;;-2.54;58.83;97306.31;6074479;23;20201;-81
2023/02/08 06:37:26;;;;;;;15.50;11.20;;;;;;;-2.63;59.01;97307.44;6073738;23;20235;-81
2023/02/08 06:39:54;;;;;;;17.20;11.17;;;;;;;-2.55;58.98;97314.75;6073849;23;20192;-82
2023/02/08 06:42:20;;;;;;;18.73;11.80;;;;;;;-2.59;58.88;97316.56;6073351;23;20212;-81
2023/02/08 06:44:48;;;;;;;17.30;11.27;;;;;;;-2.53;59.86;97316.34;6074920;23;20205;-81
2023/02/08 06:47:15;;;;;;;18.77;12.10;;;;;;;-2.52;59.57;97312.97;6075047;23;20204;-81
2023/02/08 06:49:42;;;;;;;28.23;18.73;;;;;;;-2.48;60.16;97316.16;6075574;23;20185;-81
2023/02/08 06:52:08;;;;;;;17.57;11.73;;;;;;;-2.53;59.14;97318.88;6075027;23;20205;-81
2023/02/08 06:54:35;;;;;;;19.27;11.13;;;;;;;-2.62;59.12;97338.53;6076016;23;20196;-82
2023/02/08 06:57:02;;;;;;;18.53;12.13;;;;;;;-2.44;58.98;97338.72;6074717;23;20232;-81
2023/02/08 06:59:29;;;;;;;18.00;11.87;;;;;;;-2.40;58.76;97338.59;6075152;23;20192;-81
2023/02/08 07:01:56;;;;;;;17.93;11.87;;;;;;;-2.34;58.71;97333.34;6073886;23;20219;-82
2023/02/08 07:04:22;;;;;;;19.83;12.33;;;;;;;-2.38;58.33;97337.69;6075570;23;20205;-81
2023/02/08 07:06:49;;;;;;;16.63;11.47;;;;;;;-2.22;58.19;97333.72;6075542;23;20213;-82
2023/02/08 07:09:15;;;;;;;18.73;11.60;;;;;;;-2.17;57.71;97334.41;6074126;23;20188;-81
2023/02/08 07:11:42;;;;;;;16.37;11.93;;;;;;;-1.84;56.95;97337.34;6075533;23;20270;-81
2023/02/08 07:14:12;;;;;;;18.97;11.30;;;;;;;-1.58;56.78;97328.81;6074760;23;20197;-81
2023/02/08 07:16:39;;;;;;;20.90;11.67;;;;;;;-1.46;55.94;97330.03;6075149;23;20627;-81
2023/02/08 07:19:05;;;;;;;17.97;11.63;;;;;;;-1.13;55.47;97335.44;6075931;23;20181;-82
2023/02/08 07:21:32;;;;;;;19.17;11.67;;;;;;;-0.90;54.74;97337.84;6072852;23;20209;-82
2023/02/08 07:23:58;;;;;;;18.90;11.67;;;;;;;-0.73;53.88;97337.13;6074133;23;20204;-82
2023/02/08 07:26:25;;;;;;;17.10;11.90;;;;;;;-0.60;54.07;97332.41;6073861;23;20223;-82
2023/02/08 07:28:51;;;;;;;18.23;11.30;;;;;;;-0.47;53.27;97331.81;6059111;23;20529;-82
2023/02/08 07:31:19;;;;;;;15.67;11.37;;;;;;;-0.61;53.24;97329.06;6073079;23;20189;-82
2023/02/08 07:33:45;;;;;;;18.90;12.53;;;;;;;-0.30;53.13;97332.78;6074300;23;20197;-82
2023/02/08 07:36:12;;;;;;;19.87;12.10;;;;;;;0.00;52.67;97327.19;6073284;23;20583;-81
2023/02/08 07:38:38;;;;;;;18.43;12.00;;;;;;;0.59;51.05;97335.44;6075475;23;20181;-81
2023/02/08 07:41:08;;;;;;;16.87;11.33;;;;;;;0.80;50.33;97331.09;6074644;23;20181;-81
2023/02/08 07:43:35;;;;;;;18.40;12.33;;;;;;;1.12;49.76;97332.06;6073906;23;20204;-81
2023/02/08 07:46:05;;;;;;;17.93;12.10;;;;;;;1.19;49.28;97329.13;6058667;23;20213;-82
2023/02/08 07:48:33;;;;;;;15.80;11.83;;;;;;;1.12;49.10;97330.34;6074120;23;20208;-81
2023/02/08 07:51:00;;;;;;;20.13;11.77;;;;;;;0.83;49.87;97338.53;6073796;23;20187;-82
2023/02/08 07:53:26;;;;;;;18.20;12.00;;;;;;;0.89;49.77;97325.59;6074486;23;20213;-81
2023/02/08 07:55:53;;;;;;;17.60;11.43;;;;;;;0.55;50.80;97333.97;6074740;23;20184;-81
2023/02/08 07:58:19;;;;;;;16.43;11.63;;;;;;;0.71;50.25;97327.28;6073102;23;20212;-82
2023/02/08 08:00:45;;;;;;;16.83;11.93;;;;;;;0.46;50.47;97322.53;6074928;23;20374;-82
2023/02/08 08:03:12;;;;;;;15.50;11.30;;;;;;;0.73;50.29;97327.22;6073408;23;20212;-84
2023/02/08 08:05:41;;;;;;;16.70;11.30;;;;;;;0.40;50.86;97327.06;6073072;23;20200;-84
2023/02/08 08:08:08;;;;;;;18.57;12.13;;;;;;;0.41;50.98;97323.66;6072561;23;20201;-84
2023/02/08 08:10:34;;;;;;;35.20;23.10;;;;;;;0.69;50.90;97326.53;6042138;23;20208;-84
2023/02/08 08:13:01;;;;;;;16.93;12.87;;;;;;;0.99;49.91;97329.28;6068741;23;20213;-84
2023/02/08 08:15:28;;;;;;;15.90;11.03;;;;;;;0.87;49.58;97327.38;6073321;23;20204;-84
2023/02/08 08:17:54;;;;;;;15.30;10.87;;;;;;;0.76;50.14;97325.38;6072165;23;20213;-84
2023/02/08 08:20:21;;;;;;;15.23;11.27;;;;;;;0.91;49.58;97327.16;6073728;23;20177;-84
2023/02/08 08:22:49;;;;;;;16.73;11.77;;;;;;;0.95;49.63;97327.81;6071995;23;20217;-84
2023/02/08 08:25:16;;;;;;;18.53;12.17;;;;;;;1.47;49.03;97337.94;6057715;23;20220;-84
2023/02/08 08:27:42;;;;;;;17.40;11.73;;;;;;;1.44;48.27;97326.19;6071850;23;20684;-84
2023/02/08 08:30:12;;;;;;;16.33;11.00;;;;;;;1.06;49.32;97335.72;6072433;23;20222;-84
2023/02/08 08:32:38;;;;;;;16.37;11.57;;;;;;;1.47;49.35;97330.31;6071627;23;20299;-84
2023/02/08 08:35:06;;;;;;;17.23;11.03;;;;;;;1.35;48.85;97339.34;6071026;23;20208;-84
2023/02/08 08:37:33;;;;;;;17.87;11.80;;;;;;;1.24;49.36;97334.00;6072466;23;20212;-84
2023/02/08 08:40:01;;;;;;;17.50;12.03;;;;;;;1.13;49.75;97334.53;6043107;23;20208;-84
2023/02/08 08:42:27;;;;;;;16.60;10.97;;;;;;;1.26;49.45;97333.03;6066498;23;20205;-84
2023/02/08 08:44:54;;;;;;;17.53;11.73;;;;;;;1.26;49.37;97329.66;6072660;23;20212;-84
2023/02/08 08:47:21;;;;;;;16.23;10.83;;;;;;;1.25;49.62;97326.31;6072239;23;20209;-84
2023/02/08 08:49:47;;;;;;;16.37;11.20;;;;;;;1.52;48.75;97331.72;6072942;23;20173;-84
2023/02/08 08:52:14;;;;;;;21.20;12.07;;;;;;;1.69;49.26;97323.25;6071923;23;20216;-84
2023/02/08 08:54:41;;;;;;;16.03;11.10;;;;;;;1.47;48.60;97325.22;6073077;23;20197;-84
2023/02/08 08:57:08;;;;;;;15.47;10.87;;;;;;;1.45;49.30;97327.84;6070922;23;20549;-84
2023/02/08 08:59:35;;;;;;;15.27;10.87;;;;;;;2.00;48.72;97318.19;6072053;23;20214;-84
2023/02/08 09:02:02;;;;;;;16.17;10.57;;;;;;;2.41;47.13;97315.97;6070163;23;20204;-84
2023/02/08 09:04:28;;;;;;;13.43;10.07;;;;;;;2.77;46.80;97325.84;6071527;23;20256;-84
2023/02/08 09:06:55;;;;;;;16.93;11.00;;;;;;;2.75;46.02;97320.00;6070188;23;20216;-84
2023/02/08 09:09:22;;;;;;;14.90;10.80;;;;;;;2.51;46.22;97320.53;6071089;23;20687;-84
2023/02/08 09:11:49;;;;;;;16.93;11.50;;;;;;;2.12;47.42;97319.25;6070294;23;20208;-84
2023/02/08 09:14:17;;;;;;;16.77;10.67;;;;;;;2.25;47.65;97312.63;6070731;23;20204;-83
2023/02/08 09:16:46;;;;;;;17.23;11.50;;;;;;;2.45;47.01;97310.72;6070617;23;20216;-84
2023/02/08 09:19:13;;;;;;;14.13;11.00;;;;;;;2.44;47.76;97315.00;6071471;23;20177;-84
2023/02/08 09:21:40;;;;;;;12.63;9.70;;;;;;;2.75;47.33;97327.63;6070302;23;20212;-85
2023/02/08 09:24:07;;;;;;;13.17;10.17;;;;;;;2.63;46.91;97318.16;6070575;23;20201;-84
2023/02/08 09:26:34;;;;;;;15.63;11.37;;;;;;;2.81;47.03;97323.94;6071729;23;20241;-84
2023/02/08 09:29:03;;;;;;;16.67;11.37;;;;;;;2.98;46.48;97323.00;6055441;23;20212;-84
2023/02/08 09:31:34;;;;;;;14.90;11.13;;;;;;;3.07;46.69;97323.31;6070508;23;20186;-84
2023/02/08 09:34:01;;;;;;;14.00;10.80;;;;;;;3.34;46.19;97317.50;6071941;23;20233;-84
2023/02/08 09:36:31;;;;;;;15.33;11.10;;;;;;;2.62;46.95;97321.59;6072382;23;20192;-85
2023/02/08 09:39:00;;;;;;;15.90;11.87;;;;;;;2.22;48.05;97328.03;6071064;23;20180;-84
2023/02/08 09:41:41;;;;;;;16.87;11.20;;;;;;;2.20;49.01;97329.00;6070175;23;20228;-84
2023/02/08 09:44:18;;;;;;;16.43;12.20;;;;;;;2.33;48.67;97323.19;6071162;23;20207;-84
2023/02/08 09:46:55;;;;;;;20.10;12.40;;;;;;;2.22;49.26;97329.75;6070251;23;20731;-84
2023/02/08 09:49:35;;;;;;;15.90;12.07;;;;;;;2.04;49.51;97326.47;6071272;23;20164;-85
2023/02/08 09:52:03;;;;;;;14.47;11.30;;;;;;;1.79;49.79;97326.13;6068855;23;20215;-85
2023/02/08 09:54:33;;;;;;;14.53;10.93;;;;;;;2.12;49.63;97333.69;6070555;23;20200;-84
2023/02/08 09:57:03;;;;;;;20.07;14.10;;;;;;;2.10;49.40;97327.88;6070638;23;20216;-84
2023/02/08 09:59:33;;;;;;;25.10;14.83;;;;;;;2.55;48.96;97335.53;6071683;23;20166;-82
2023/02/08 10:02:15;;;;;;;14.80;11.10;;;;;;;2.37;49.21;97318.75;6070860;23;20283;-82
2023/02/08 10:04:55;;;;;;;13.70;10.63;;;;;;;2.22;49.13;97317.88;6072070;23;20193;-81
2023/02/08 10:07:21;;;;;;;14.50;10.77;;;;;;;1.79;49.88;97326.13;6071260;23;20208;-82
2023/02/08 10:09:48;;;;;;;15.17;10.73;;;;;;;1.83;50.52;97330.13;6070667;23;20181;-82
2023/02/08 10:12:22;;;;;;;17.40;11.87;;;;;;;1.64;50.72;97323.47;6069758;23;20219;-82
2023/02/08 10:15:02;;;;;;;16.13;11.90;;;;;;;1.77;50.70;97325.38;6071066;23;20208;-84
2023/02/08 10:17:59;;;;;;;16.87;10.73;;;;;;;1.93;50.80;97326.19;6070636;23;20208;-84
2023/02/08 10:20:38;;;;;;;20.53;11.93;;;;;;;2.01;50.57;97317.28;6033244;23;20181;-84
2023/02/08 10:23:17;;;;;;;15.07;10.43;;;;;;;2.02;50.75;97308.78;6070546;23;20209;-83
2023/02/08 10:25:55;;;;;;;15.37;11.17;;;;;;;2.20;50.37;97301.06;6070661;23;20215;-83
2023/02/08 10:28:42;;;;;;;14.00;10.77;;;;;;;2.35;49.89;97313.75;6071091;23;20220;-83
2023/02/08 10:31:21;;;;;;;13.90;10.67;;;;;;;2.20;49.09;97309.50;6070507;23;20537;-84
2023/02/08 10:33:59;;;;;;;15.60;10.80;;;;;;;1.80;50.96;97300.63;6071164;23;20205;-83
2023/02/08 10:36:31;;;;;;;20.33;11.53;;;;;;;1.71;51.06;97306.22;6071376;23;20168;-84
2023/02/08 10:38:59;;;;;;;15.60;11.30;;;;;;;1.87;50.94;97303.69;6071953;23;20168;-84
2023/02/08 10:41:31;;;;;;;18.93;11.17;;;;;;;2.05;50.58;97308.63;6070028;23;20177;-84
2023/02/08 10:44:06;;;;;;;18.40;11.20;;;;;;;2.05;50.15;97300.16;6073980;23;20207;-84
2023/02/08 10:46:42;;;;;;;16.27;11.73;;;;;;;2.00;50.39;97289.44;6073838;23;20215;-84
2023/02/08 10:49:17;;;;;;;16.87;11.10;;;;;;;2.10;50.48;97293.13;6073609;23;20165;-84
2023/02/08 10:51:45;;;;;;;14.63;11.07;;;;;;;2.23;50.27;97291.56;6071872;23;20215;-83
2023/02/08 10:54:13;;;;;;;13.27;10.37;;;;;;;2.34;49.82;97290.97;6058458;23;20272;-83
2023/02/08 10:56:45;;;;;;;14.43;10.97;;;;;;;2.35;50.01;97284.97;6074032;23;20235;-84
2023/02/08 10:59:19;;;;;;;15.43;10.77;;;;;;;2.68;49.42;97280.59;6073504;23;20216;-83
2023/02/08 11:01:48;;;;;;;15.93;11.10;;;;;;;2.76;49.66;97277.59;6072203;23;20271;-84
2023/02/08 11:04:17;;;;;;;15.93;11.37;;;;;;;3.04;48.84;97269.22;6073922;23;20588;-83
2023/02/08 11:06:45;;;;;;;15.67;10.80;;;;;;;3.20;48.46;97261.50;6072939;23;20227;-84
2023/02/08 11:09:21;;;;;;;14.10;10.43;;;;;;;3.21;48.25;97263.16;6074435;23;20177;-84
2023/02/08 11:11:51;;;;;;;13.80;10.67;;;;;;;3.55;47.69;97255.13;6072896;23;20200;-83
2023/02/08 11:14:19;;;;;;;17.17;11.13;;;;;;;3.34;47.08;97256.41;6073410;23;20554;-83
2023/02/08 11:16:50;;;;;;;15.73;10.83;;;;;;;3.34;47.89;97258.97;6071031;23;20204;-84
2023/02/08 11:19:23;;;;;;;15.47;11.80;;;;;;;3.58;47.97;97261.78;6073989;23;20240;-85
2023/02/08 11:21:51;;;;;;;15.13;11.73;;;;;;;3.63;47.67;97252.13;6073573;23;20208;-84
2023/02/08 11:24:32;;;;;;;17.07;12.70;;;;;;;3.17;48.35;97261.69;6073324;23;20208;-85
2023/02/08 11:27:00;;;;;;;22.50;15.50;;;;;;;3.01;48.83;97260.03;6073259;23;20295;-84
2023/02/08 11:29:29;;;;;;;15.37;11.10;;;;;;;2.81;48.94;97262.91;6073248;23;20505;-84
2023/02/08 11:32:01;;;;;;;15.77;11.13;;;;;;;2.85;49.73;97251.66;6071102;23;20490;-84
2023/02/08 11:34:31;;;;;;;16.43;11.23;;;;;;;2.73;50.05;97253.16;6073524;23;20644;-84